Terminal Aerodrome Forecast
Issued by NWS

Home | Current Version | Previous Version | Text Only | Print | Product List | Glossary On
Versions: 1 2 3 4 5 6 7 8 9 10 11 12 13 14 15 16 17 18 19 20
017
FTUS41 KPBZ 242018 CCA
TAFMGW
TAF COR
KMGW 242018Z 2420/2518 17010G20KT P6SM SKC
     FM250600 18010G17KT P6SM SCT120
     FM251200 18012G23KT 3SM -SHRA VCTS OVC050CB
     FM251700 22016G29KT P6SM OVC025=

USA.gov is the U.S. government's official web portal to all federal, state and local government web resources and services.